createdAt,value
2023-06-19T08:35:56.628Z,84.90
2023-06-19T08:38:25.062Z,84.50
2023-06-19T08:40:53.501Z,84.70
2023-06-19T08:43:22.000Z,84.80
2023-06-19T08:46:04.928Z,85.00
2023-06-19T08:48:33.400Z,85.60
2023-06-19T08:51:05.313Z,85.10
2023-06-19T08:53:42.384Z,85.20
2023-06-19T08:56:10.892Z,85.20
2023-06-19T08:58:39.424Z,85.10
2023-06-19T09:01:07.955Z,85.20
2023-06-19T09:03:36.707Z,85.30
2023-06-19T09:06:10.807Z,85.70
2023-06-19T09:08:40.187Z,86.30
2023-06-19T09:11:10.785Z,85.30
2023-06-19T09:13:39.717Z,85.20
2023-06-19T09:16:09.797Z,85.30
2023-06-19T09:18:56.066Z,84.90
2023-06-19T09:21:26.245Z,84.70
2023-06-19T09:23:54.758Z,84.10
2023-06-19T09:26:31.290Z,84.20
2023-06-19T09:28:59.719Z,84.20
2023-06-19T09:31:35.309Z,84.10
2023-06-19T09:34:04.003Z,84.40
2023-06-19T09:36:35.724Z,83.90
2023-06-19T09:39:06.109Z,84.20
2023-06-19T09:41:43.590Z,84.10
2023-06-19T09:44:15.898Z,84.10
2023-06-19T09:46:48.992Z,83.90
2023-06-19T09:49:20.270Z,84.60
2023-06-19T09:51:52.172Z,84.10
2023-06-19T09:54:22.761Z,83.90
2023-06-19T09:56:52.928Z,84.80
2023-06-19T09:59:23.088Z,84.20
2023-06-19T10:01:51.894Z,83.90
2023-06-19T10:04:20.364Z,84.00
2023-06-19T10:06:50.890Z,83.50
2023-06-19T10:09:20.443Z,84.00
2023-06-19T10:11:52.405Z,83.20
2023-06-19T10:14:21.924Z,84.10
2023-06-19T10:16:50.944Z,84.00
2023-06-19T10:19:23.749Z,83.40
2023-06-19T10:21:56.478Z,83.40
2023-06-19T10:24:28.683Z,83.50
2023-06-19T10:27:03.568Z,82.90
2023-06-19T10:29:41.342Z,83.20
2023-06-19T10:32:13.742Z,83.00
2023-06-19T10:34:42.517Z,83.30
2023-06-19T10:37:13.611Z,83.00
2023-06-19T10:39:42.129Z,82.90
2023-06-19T10:42:12.233Z,82.50
2023-06-19T10:44:43.237Z,83.20
2023-06-19T10:47:11.816Z,83.10
2023-06-19T10:49:40.269Z,82.70
2023-06-19T10:52:11.215Z,82.10
2023-06-19T10:54:39.652Z,82.90
2023-06-19T10:57:08.971Z,82.20
2023-06-19T10:59:37.525Z,82.60
2023-06-19T11:02:07.069Z,82.70
2023-06-19T11:04:40.702Z,83.00
2023-06-19T11:07:11.886Z,82.80
2023-06-19T11:09:41.856Z,82.50
2023-06-19T11:12:12.480Z,82.50
2023-06-19T11:14:42.999Z,82.10
2023-06-19T11:17:11.951Z,81.30
2023-06-19T11:19:43.598Z,80.40
2023-06-19T11:22:13.876Z,80.00
2023-06-19T11:24:47.163Z,79.80
2023-06-19T11:27:28.398Z,80.60
2023-06-19T11:30:01.324Z,80.30
2023-06-19T11:32:34.663Z,79.80
2023-06-19T11:35:09.910Z,80.70
2023-06-19T11:37:42.375Z,80.00
2023-06-19T11:40:16.411Z,79.50
2023-06-19T11:42:50.264Z,79.80
2023-06-19T11:45:18.963Z,79.00
2023-06-19T11:47:48.239Z,78.50
2023-06-19T11:50:18.175Z,78.20
2023-06-19T11:52:48.658Z,78.20
2023-06-19T11:55:18.077Z,78.50
2023-06-19T11:57:46.572Z,77.50
2023-06-19T12:00:19.202Z,77.40
2023-06-19T12:02:49.670Z,77.20
2023-06-19T12:05:18.535Z,76.80
2023-06-19T12:07:48.459Z,76.80
2023-06-19T12:10:17.097Z,76.60
2023-06-19T12:12:45.604Z,77.30
2023-06-19T12:15:14.125Z,77.90
2023-06-19T12:17:42.704Z,76.80
2023-06-19T12:20:14.678Z,76.30
2023-06-19T12:22:43.701Z,76.60
2023-06-19T12:25:13.617Z,76.70
2023-06-19T12:27:42.445Z,76.80
2023-06-19T12:30:12.917Z,77.00
2023-06-19T12:32:41.475Z,76.70
2023-06-19T12:35:11.018Z,76.00
2023-06-19T12:37:39.403Z,75.50
2023-06-19T12:40:12.056Z,75.80
2023-06-19T12:42:41.887Z,76.90
2023-06-19T12:45:11.819Z,76.30
2023-06-19T12:47:40.377Z,76.60
2023-06-19T12:50:11.467Z,76.60
2023-06-19T12:52:39.926Z,77.00
2023-06-19T12:55:09.536Z,76.70
2023-06-19T12:57:38.235Z,77.10
2023-06-19T13:00:11.460Z,77.00
2023-06-19T13:02:40.420Z,76.70
2023-06-19T13:05:09.602Z,76.40
2023-06-19T13:07:38.462Z,76.00
2023-06-19T13:10:08.339Z,76.20
2023-06-19T13:12:36.833Z,76.50
2023-06-19T13:15:08.261Z,75.60
2023-06-19T13:17:36.760Z,75.60
2023-06-19T13:20:06.430Z,75.50
2023-06-19T13:22:34.985Z,75.10
2023-06-19T13:25:04.300Z,74.70
2023-06-19T13:27:32.883Z,74.10
2023-06-19T13:30:03.598Z,74.50
2023-06-19T13:32:33.490Z,74.80
2023-06-19T13:35:01.918Z,73.60
2023-06-19T13:37:30.381Z,73.70
2023-06-19T13:39:58.960Z,73.60
2023-06-19T13:42:27.689Z,73.70
2023-06-19T13:44:56.106Z,73.70
2023-06-19T13:47:26.270Z,73.60
2023-06-19T13:49:56.302Z,73.70
2023-06-19T13:52:25.026Z,72.50
2023-06-19T13:54:55.688Z,72.60
2023-06-19T13:57:24.736Z,72.50
2023-06-19T13:59:53.155Z,72.70
2023-06-19T14:02:22.756Z,72.60
2023-06-19T14:04:51.695Z,71.70
2023-06-19T14:07:23.245Z,71.40
2023-06-19T14:09:54.640Z,70.40
2023-06-19T14:12:23.952Z,70.70
2023-06-19T14:14:53.254Z,71.10
2023-06-19T14:17:22.117Z,71.10
